sensor_id;sensor_type;location;lat;lon;timestamp;pressure;altitude;pressure_sealevel;temperature;humidity
22481;BME280;11407;56.964;-2.212;2022-09-03T00:04:54;101359.88;;;25.70;49.61
22481;BME280;11407;56.964;-2.212;2022-09-03T00:10:53;101352.78;;;25.63;49.78
22481;BME280;11407;56.964;-2.212;2022-09-03T00:13:35;101347.56;;;25.61;49.84
22481;BME280;11407;56.964;-2.212;2022-09-03T00:16:05;101345.25;;;25.86;48.01
22481;BME280;11407;56.964;-2.212;2022-09-03T00:18:44;101337.38;;;25.63;48.69
22481;BME280;11407;56.964;-2.212;2022-09-03T00:21:14;101343.63;;;25.64;48.56
22481;BME280;11407;56.964;-2.212;2022-09-03T00:23:43;101343.38;;;25.59;48.31
22481;BME280;11407;56.964;-2.212;2022-09-03T00:28:41;101345.56;;;25.43;48.79
22481;BME280;11407;56.964;-2.212;2022-09-03T00:34:04;101345.72;;;25.35;49.04
22481;BME280;11407;56.964;-2.212;2022-09-03T00:36:38;101341.91;;;25.57;49.42
22481;BME280;11407;56.964;-2.212;2022-09-03T00:39:11;101339.81;;;25.52;48.84
22481;BME280;11407;56.964;-2.212;2022-09-03T01:21:11;101312.72;;;24.91;49.78
22481;BME280;11407;56.964;-2.212;2022-09-03T01:32:03;101323.03;;;24.10;52.10
22481;BME280;11407;56.964;-2.212;2022-09-03T01:37:49;101321.72;;;24.06;51.41
22481;BME280;11407;56.964;-2.212;2022-09-03T01:45:46;101313.22;;;24.24;51.26
22481;BME280;11407;56.964;-2.212;2022-09-03T01:48:40;101312.41;;;24.23;51.42
22481;BME280;11407;56.964;-2.212;2022-09-03T01:59:47;101296.94;;;24.46;50.64
22481;BME280;11407;56.964;-2.212;2022-09-03T02:02:19;101298.28;;;24.57;50.33
22481;BME280;11407;56.964;-2.212;2022-09-03T02:07:26;101293.22;;;24.47;50.54
22481;BME280;11407;56.964;-2.212;2022-09-03T02:09:58;101299.19;;;24.84;50.21
22481;BME280;11407;56.964;-2.212;2022-09-03T02:12:24;101289.66;;;25.09;49.04
22481;BME280;11407;56.964;-2.212;2022-09-03T02:14:50;101282.66;;;25.15;49.44
22481;BME280;11407;56.964;-2.212;2022-09-03T02:17:15;101286.19;;;25.15;49.34
22481;BME280;11407;56.964;-2.212;2022-09-03T02:19:41;101291.16;;;24.91;49.98
22481;BME280;11407;56.964;-2.212;2022-09-03T02:22:06;101292.06;;;24.77;50.73
22481;BME280;11407;56.964;-2.212;2022-09-03T02:24:32;101295.63;;;24.84;50.56
22481;BME280;11407;56.964;-2.212;2022-09-03T02:26:58;101297.94;;;24.87;49.92
22481;BME280;11407;56.964;-2.212;2022-09-03T02:29:23;101293.59;;;24.86;50.83
22481;BME280;11407;56.964;-2.212;2022-09-03T02:31:49;101295.97;;;24.95;50.57
22481;BME280;11407;56.964;-2.212;2022-09-03T02:34:15;101291.63;;;25.22;49.66
22481;BME280;11407;56.964;-2.212;2022-09-03T02:36:45;101295.28;;;25.42;48.96
22481;BME280;11407;56.964;-2.212;2022-09-03T02:39:12;101287.13;;;25.29;49.37
22481;BME280;11407;56.964;-2.212;2022-09-03T02:41:37;101293.03;;;25.11;50.25
22481;BME280;11407;56.964;-2.212;2022-09-03T02:44:28;101292.22;;;25.17;50.33
22481;BME280;11407;56.964;-2.212;2022-09-03T02:46:57;101281.88;;;25.00;50.69
22481;BME280;11407;56.964;-2.212;2022-09-03T02:49:22;101288.78;;;25.09;49.95
22481;BME280;11407;56.964;-2.212;2022-09-03T02:51:48;101286.38;;;25.14;49.62
22481;BME280;11407;56.964;-2.212;2022-09-03T02:54:14;101277.31;;;25.21;50.10
22481;BME280;11407;56.964;-2.212;2022-09-03T02:56:39;101283.16;;;25.25;50.02
22481;BME280;11407;56.964;-2.212;2022-09-03T02:59:07;101280.63;;;25.23;49.64
22481;BME280;11407;56.964;-2.212;2022-09-03T03:01:33;101274.16;;;25.18;49.62
22481;BME280;11407;56.964;-2.212;2022-09-03T03:03:59;101267.72;;;25.19;49.79
22481;BME280;11407;56.964;-2.212;2022-09-03T03:06:25;101268.38;;;25.21;49.65
22481;BME280;11407;56.964;-2.212;2022-09-03T03:08:51;101263.09;;;25.40;49.10
22481;BME280;11407;56.964;-2.212;2022-09-03T03:11:19;101269.13;;;25.42;49.12
22481;BME280;11407;56.964;-2.212;2022-09-03T03:13:46;101259.31;;;25.68;48.79
22481;BME280;11407;56.964;-2.212;2022-09-03T03:16:13;101262.31;;;25.46;49.44
22481;BME280;11407;56.964;-2.212;2022-09-03T03:18:39;101269.81;;;25.84;47.56
22481;BME280;11407;56.964;-2.212;2022-09-03T03:21:06;101266.41;;;25.36;49.06
22481;BME280;11407;56.964;-2.212;2022-09-03T03:23:33;101267.38;;;25.28;49.42
22481;BME280;11407;56.964;-2.212;2022-09-03T03:26:03;101270.69;;;25.24;50.33
22481;BME280;11407;56.964;-2.212;2022-09-03T03:28:29;101274.03;;;25.26;49.97
22481;BME280;11407;56.964;-2.212;2022-09-03T03:31:08;101274.16;;;25.45;49.38
22481;BME280;11407;56.964;-2.212;2022-09-03T03:33:35;101270.22;;;25.48;48.94
22481;BME280;11407;56.964;-2.212;2022-09-03T03:36:09;101269.53;;;25.39;49.95
22481;BME280;11407;56.964;-2.212;2022-09-03T03:38:36;101263.47;;;25.71;48.55
22481;BME280;11407;56.964;-2.212;2022-09-03T03:41:08;101258.13;;;25.44;49.88
22481;BME280;11407;56.964;-2.212;2022-09-03T03:43:34;101254.78;;;25.42;49.61
22481;BME280;11407;56.964;-2.212;2022-09-03T03:45:59;101265.59;;;25.42;49.54
22481;BME280;11407;56.964;-2.212;2022-09-03T03:48:25;101253.75;;;25.43;49.05
22481;BME280;11407;56.964;-2.212;2022-09-03T03:50:51;101249.41;;;25.42;49.17
22481;BME280;11407;56.964;-2.212;2022-09-03T03:53:16;101250.66;;;25.46;48.95
22481;BME280;11407;56.964;-2.212;2022-09-03T03:55:42;101252.97;;;25.49;48.86
22481;BME280;11407;56.964;-2.212;2022-09-03T03:58:07;101243.56;;;25.38;49.31
22481;BME280;11407;56.964;-2.212;2022-09-03T04:00:33;101246.47;;;25.37;49.86
22481;BME280;11407;56.964;-2.212;2022-09-03T04:03:01;101247.06;;;25.32;50.01
22481;BME280;11407;56.964;-2.212;2022-09-03T04:05:26;101245.91;;;25.48;49.26
22481;BME280;11407;56.964;-2.212;2022-09-03T04:07:52;101241.06;;;25.37;49.30
22481;BME280;11407;56.964;-2.212;2022-09-03T04:10:17;101241.44;;;25.27;50.02
22481;BME280;11407;56.964;-2.212;2022-09-03T04:12:43;101254.38;;;25.11;50.61
22481;BME280;11407;56.964;-2.212;2022-09-03T04:15:08;101244.69;;;25.16;50.27
22481;BME280;11407;56.964;-2.212;2022-09-03T04:17:34;101245.75;;;25.22;49.80
22481;BME280;11407;56.964;-2.212;2022-09-03T04:19:59;101246.47;;;25.37;49.49
22481;BME280;11407;56.964;-2.212;2022-09-03T04:22:27;101249.22;;;25.43;49.84
22481;BME280;11407;56.964;-2.212;2022-09-03T04:24:53;101243.81;;;25.43;49.76
22481;BME280;11407;56.964;-2.212;2022-09-03T04:27:18;101245.66;;;25.43;49.98
22481;BME280;11407;56.964;-2.212;2022-09-03T04:29:44;101244.63;;;25.44;50.26
22481;BME280;11407;56.964;-2.212;2022-09-03T04:32:09;101242.97;;;25.43;49.63
22481;BME280;11407;56.964;-2.212;2022-09-03T04:34:53;101242.56;;;25.46;50.09
22481;BME280;11407;56.964;-2.212;2022-09-03T04:37:18;101241.78;;;25.58;49.57
22481;BME280;11407;56.964;-2.212;2022-09-03T04:39:44;101242.84;;;25.63;49.22
22481;BME280;11407;56.964;-2.212;2022-09-03T04:42:10;101240.34;;;25.56;49.18
22481;BME280;11407;56.964;-2.212;2022-09-03T04:44:35;101245.78;;;25.62;49.36
22481;BME280;11407;56.964;-2.212;2022-09-03T04:47:03;101231.50;;;25.74;48.81
22481;BME280;11407;56.964;-2.212;2022-09-03T04:49:29;101241.44;;;25.67;49.13
22481;BME280;11407;56.964;-2.212;2022-09-03T04:51:55;101234.19;;;25.68;49.05
22481;BME280;11407;56.964;-2.212;2022-09-03T04:54:20;101228.34;;;25.71;49.05
22481;BME280;11407;56.964;-2.212;2022-09-03T04:56:46;101243.59;;;25.78;49.35
22481;BME280;11407;56.964;-2.212;2022-09-03T04:59:12;101225.75;;;25.84;48.98
22481;BME280;11407;56.964;-2.212;2022-09-03T05:01:38;101231.31;;;25.76;48.78
22481;BME280;11407;56.964;-2.212;2022-09-03T05:04:05;101225.47;;;25.72;49.21
22481;BME280;11407;56.964;-2.212;2022-09-03T05:06:32;101229.47;;;25.83;49.47
22481;BME280;11407;56.964;-2.212;2022-09-03T05:08:58;101225.91;;;25.76;49.39
22481;BME280;11407;56.964;-2.212;2022-09-03T05:11:25;101225.91;;;25.76;49.34
22481;BME280;11407;56.964;-2.212;2022-09-03T05:13:53;101221.47;;;25.62;49.80
22481;BME280;11407;56.964;-2.212;2022-09-03T05:16:19;101220.75;;;25.87;48.84
22481;BME280;11407;56.964;-2.212;2022-09-03T05:18:46;101218.53;;;26.10;48.68
22481;BME280;11407;56.964;-2.212;2022-09-03T05:21:14;101221.84;;;25.99;48.36
22481;BME280;11407;56.964;-2.212;2022-09-03T05:23:41;101223.28;;;25.49;49.86
22481;BME280;11407;56.964;-2.212;2022-09-03T05:26:10;101233.06;;;25.90;48.79
22481;BME280;11407;56.964;-2.212;2022-09-03T05:28:38;101235.31;;;25.80;48.93
22481;BME280;11407;56.964;-2.212;2022-09-03T05:31:16;101231.81;;;25.92;48.75
22481;BME280;11407;56.964;-2.212;2022-09-03T05:33:47;101232.41;;;25.81;49.17
22481;BME280;11407;56.964;-2.212;2022-09-03T05:36:17;101237.81;;;25.88;49.40
22481;BME280;11407;56.964;-2.212;2022-09-03T05:38:45;101234.56;;;25.65;49.55
22481;BME280;11407;56.964;-2.212;2022-09-03T05:41:12;101241.63;;;26.06;48.28
22481;BME280;11407;56.964;-2.212;2022-09-03T05:43:39;101235.44;;;26.25;48.25
22481;BME280;11407;56.964;-2.212;2022-09-03T05:46:13;101231.72;;;26.39;48.13
22481;BME280;11407;56.964;-2.212;2022-09-03T05:48:40;101236.66;;;26.10;48.08
22481;BME280;11407;56.964;-2.212;2022-09-03T05:51:12;101241.13;;;25.83;49.24
22481;BME280;11407;56.964;-2.212;2022-09-03T05:53:44;101244.13;;;26.08;48.96
22481;BME280;11407;56.964;-2.212;2022-09-03T05:56:12;101247.28;;;26.24;48.27
22481;BME280;11407;56.964;-2.212;2022-09-03T05:58:42;101243.53;;;26.19;48.56
22481;BME280;11407;56.964;-2.212;2022-09-03T06:01:13;101241.19;;;25.96;49.43
22481;BME280;11407;56.964;-2.212;2022-09-03T06:03:40;101252.06;;;25.75;49.87
22481;BME280;11407;56.964;-2.212;2022-09-03T06:06:06;101240.22;;;25.76;50.05
22481;BME280;11407;56.964;-2.212;2022-09-03T06:08:33;101243.47;;;26.06;49.15
22481;BME280;11407;56.964;-2.212;2022-09-03T06:11:00;101232.81;;;25.85;49.84
22481;BME280;11407;56.964;-2.212;2022-09-03T06:13:27;101235.69;;;25.77;49.70
22481;BME280;11407;56.964;-2.212;2022-09-03T06:15:58;101235.56;;;25.58;50.52
22481;BME280;11407;56.964;-2.212;2022-09-03T06:18:25;101232.09;;;25.30;51.81
22481;BME280;11407;56.964;-2.212;2022-09-03T06:20:55;101239.28;;;25.50;51.26
22481;BME280;11407;56.964;-2.212;2022-09-03T06:23:21;101233.47;;;25.53;50.83
22481;BME280;11407;56.964;-2.212;2022-09-03T06:25:47;101244.78;;;25.69;50.47
22481;BME280;11407;56.964;-2.212;2022-09-03T06:28:12;101243.59;;;25.78;50.16
22481;BME280;11407;56.964;-2.212;2022-09-03T06:30:38;101247.41;;;25.97;49.53
22481;BME280;11407;56.964;-2.212;2022-09-03T06:33:03;101252.81;;;25.97;49.33
22481;BME280;11407;56.964;-2.212;2022-09-03T06:35:29;101253.25;;;25.60;50.00
22481;BME280;11407;56.964;-2.212;2022-09-03T06:37:55;101248.72;;;25.67;50.36
22481;BME280;11407;56.964;-2.212;2022-09-03T06:40:20;101258.00;;;25.52;50.42
22481;BME280;11407;56.964;-2.212;2022-09-03T06:42:57;101255.28;;;25.52;51.05
22481;BME280;11407;56.964;-2.212;2022-09-03T06:45:29;101259.81;;;25.45;50.80
22481;BME280;11407;56.964;-2.212;2022-09-03T06:47:54;101262.28;;;25.40;51.28
22481;BME280;11407;56.964;-2.212;2022-09-03T06:50:20;101256.69;;;25.41;51.13
22481;BME280;11407;56.964;-2.212;2022-09-03T06:52:52;101253.47;;;26.05;50.21
22481;BME280;11407;56.964;-2.212;2022-09-03T06:55:21;101257.25;;;26.17;49.37
22481;BME280;11407;56.964;-2.212;2022-09-03T06:57:47;101259.34;;;26.22;48.81
22481;BME280;11407;56.964;-2.212;2022-09-03T07:00:13;101264.13;;;26.20;49.12
22481;BME280;11407;56.964;-2.212;2022-09-03T07:02:38;101259.09;;;26.17;49.50
22481;BME280;11407;56.964;-2.212;2022-09-03T07:05:06;101259.47;;;25.94;49.98
22481;BME280;11407;56.964;-2.212;2022-09-03T07:07:32;101261.41;;;25.73;50.02
22481;BME280;11407;56.964;-2.212;2022-09-03T07:09:58;101263.59;;;25.90;49.75
22481;BME280;11407;56.964;-2.212;2022-09-03T07:12:23;101268.22;;;26.03;49.41
22481;BME280;11407;56.964;-2.212;2022-09-03T07:14:49;101259.88;;;25.98;49.50
22481;BME280;11407;56.964;-2.212;2022-09-03T07:17:15;101261.97;;;26.02;49.88
22481;BME280;11407;56.964;-2.212;2022-09-03T07:19:40;101259.88;;;25.98;49.54
22481;BME280;11407;56.964;-2.212;2022-09-03T07:22:06;101264.03;;;26.00;49.45
22481;BME280;11407;56.964;-2.212;2022-09-03T07:24:32;101256.38;;;26.10;49.51
22481;BME280;11407;56.964;-2.212;2022-09-03T07:26:58;101260.38;;;26.21;49.24
22481;BME280;11407;56.964;-2.212;2022-09-03T07:29:24;101248.13;;;26.25;49.29
22481;BME280;11407;56.964;-2.212;2022-09-03T07:31:50;101254.72;;;26.16;49.58
22481;BME280;11407;56.964;-2.212;2022-09-03T07:34:15;101256.66;;;26.28;49.53
22481;BME280;11407;56.964;-2.212;2022-09-03T07:36:43;101250.22;;;26.29;49.85
22481;BME280;11407;56.964;-2.212;2022-09-03T07:39:12;101253.56;;;26.38;49.45
22481;BME280;11407;56.964;-2.212;2022-09-03T07:41:38;101253.81;;;26.49;49.06
22481;BME280;11407;56.964;-2.212;2022-09-03T07:44:07;101260.28;;;26.67;49.53
22481;BME280;11407;56.964;-2.212;2022-09-03T07:46:35;101251.53;;;26.78;49.74
22481;BME280;11407;56.964;-2.212;2022-09-03T07:49:02;101248.84;;;26.98;50.22
22481;BME280;11407;56.964;-2.212;2022-09-03T07:51:31;101252.19;;;27.13;49.20
22481;BME280;11407;56.964;-2.212;2022-09-03T07:53:59;101260.31;;;27.19;49.58
22481;BME280;11407;56.964;-2.212;2022-09-03T07:56:27;101251.75;;;27.22;49.54
22481;BME280;11407;56.964;-2.212;2022-09-03T07:58:55;101254.56;;;27.72;48.20
22481;BME280;11407;56.964;-2.212;2022-09-03T08:01:22;101250.34;;;27.89;47.79
22481;BME280;11407;56.964;-2.212;2022-09-03T08:03:49;101253.03;;;27.89;47.59
22481;BME280;11407;56.964;-2.212;2022-09-03T08:06:17;101246.09;;;28.06;47.17
22481;BME280;11407;56.964;-2.212;2022-09-03T08:08:43;101248.56;;;27.64;47.81
22481;BME280;11407;56.964;-2.212;2022-09-03T08:11:15;101251.03;;;27.72;47.47
22481;BME280;11407;56.964;-2.212;2022-09-03T08:14:03;101247.28;;;27.66;47.86
22481;BME280;11407;56.964;-2.212;2022-09-03T08:16:29;101245.41;;;28.17;46.25
22481;BME280;11407;56.964;-2.212;2022-09-03T08:18:55;101239.53;;;28.20;45.93
22481;BME280;11407;56.964;-2.212;2022-09-03T08:21:21;101240.53;;;28.32;45.31
22481;BME280;11407;56.964;-2.212;2022-09-03T08:23:49;101245.16;;;28.25;45.53
22481;BME280;11407;56.964;-2.212;2022-09-03T08:26:17;101246.25;;;28.11;45.88
22481;BME280;11407;56.964;-2.212;2022-09-03T08:28:43;101248.59;;;28.01;45.96
22481;BME280;11407;56.964;-2.212;2022-09-03T08:31:10;101249.69;;;27.94;45.92
22481;BME280;11407;56.964;-2.212;2022-09-03T08:33:37;101245.94;;;27.88;46.03
22481;BME280;11407;56.964;-2.212;2022-09-03T08:38:33;101245.56;;;27.85;46.11
22481;BME280;11407;56.964;-2.212;2022-09-03T08:49:12;101239.97;;;27.73;45.98
22481;BME280;11407;56.964;-2.212;2022-09-03T08:51:39;101249.19;;;27.66;46.39
22481;BME280;11407;56.964;-2.212;2022-09-03T08:54:08;101241.00;;;27.72;46.33
22481;BME280;11407;56.964;-2.212;2022-09-03T08:56:38;101247.63;;;27.89;45.88
22481;BME280;11407;56.964;-2.212;2022-09-03T08:59:05;101250.59;;;27.81;45.79
22481;BME280;11407;56.964;-2.212;2022-09-03T09:01:46;101247.19;;;27.92;45.53
22481;BME280;11407;56.964;-2.212;2022-09-03T09:07:23;101256.22;;;27.73;46.50
22481;BME280;11407;56.964;-2.212;2022-09-03T09:12:40;101250.94;;;27.91;46.33
22481;BME280;11407;56.964;-2.212;2022-09-03T09:15:27;101249.44;;;28.02;46.32
22481;BME280;11407;56.964;-2.212;2022-09-03T09:21:13;101247.84;;;28.32;46.13
22481;BME280;11407;56.964;-2.212;2022-09-03T09:23:45;101250.81;;;28.54;45.93
22481;BME280;11407;56.964;-2.212;2022-09-03T09:26:14;101254.44;;;28.42;46.12
22481;BME280;11407;56.964;-2.212;2022-09-03T09:28:41;101254.81;;;28.52;45.92
22481;BME280;11407;56.964;-2.212;2022-09-03T09:31:10;101258.06;;;28.91;44.90
22481;BME280;11407;56.964;-2.212;2022-09-03T09:33:39;101262.03;;;28.89;45.20
22481;BME280;11407;56.964;-2.212;2022-09-03T09:36:08;101252.00;;;29.14;44.37
22481;BME280;11407;56.964;-2.212;2022-09-03T09:38:38;101247.56;;;29.19;44.64
22481;BME280;11407;56.964;-2.212;2022-09-03T09:41:12;101253.84;;;29.37;43.84
22481;BME280;11407;56.964;-2.212;2022-09-03T09:43:38;101254.97;;;29.30;43.85
22481;BME280;11407;56.964;-2.212;2022-09-03T09:48:43;101260.09;;;29.44;44.45
22481;BME280;11407;56.964;-2.212;2022-09-03T09:51:23;101255.09;;;29.77;43.04
22481;BME280;11407;56.964;-2.212;2022-09-03T09:54:13;101250.34;;;29.73;41.81
22481;BME280;11407;56.964;-2.212;2022-09-03T09:56:45;101260.38;;;29.72;43.53
22481;BME280;11407;56.964;-2.212;2022-09-03T09:59:12;101254.63;;;29.80;42.99
22481;BME280;11407;56.964;-2.212;2022-09-03T10:01:40;101264.97;;;29.54;43.83
22481;BME280;11407;56.964;-2.212;2022-09-03T10:04:22;101255.19;;;29.71;41.86
22481;BME280;11407;56.964;-2.212;2022-09-03T10:07:03;101244.59;;;29.63;42.65
22481;BME280;11407;56.964;-2.212;2022-09-03T10:09:31;101255.25;;;29.64;43.24
22481;BME280;11407;56.964;-2.212;2022-09-03T10:14:41;101255.78;;;29.73;41.87
22481;BME280;11407;56.964;-2.212;2022-09-03T10:17:34;101256.16;;;29.76;42.27
22481;BME280;11407;56.964;-2.212;2022-09-03T10:20:11;101264.59;;;29.86;42.51
22481;BME280;11407;56.964;-2.212;2022-09-03T10:28:23;101270.72;;;29.82;42.94
22481;BME280;11407;56.964;-2.212;2022-09-03T10:33:42;101257.56;;;30.15;41.69
22481;BME280;11407;56.964;-2.212;2022-09-03T10:39:28;101272.09;;;30.09;41.20
22481;BME280;11407;56.964;-2.212;2022-09-03T10:50:52;101271.59;;;30.00;41.76
22481;BME280;11407;56.964;-2.212;2022-09-03T10:56:11;101263.63;;;30.17;41.66
22481;BME280;11407;56.964;-2.212;2022-09-03T11:06:53;101257.84;;;30.25;40.94
22481;BME280;11407;56.964;-2.212;2022-09-03T11:12:17;101267.94;;;30.06;41.76
22481;BME280;11407;56.964;-2.212;2022-09-03T11:14:53;101258.78;;;30.01;41.23
22481;BME280;11407;56.964;-2.212;2022-09-03T11:17:27;101271.34;;;29.84;42.01
22481;BME280;11407;56.964;-2.212;2022-09-03T11:20:16;101271.44;;;29.95;41.63
22481;BME280;11407;56.964;-2.212;2022-09-03T11:22:44;101278.69;;;30.01;41.51
22481;BME280;11407;56.964;-2.212;2022-09-03T11:25:13;101273.44;;;30.00;41.39
22481;BME280;11407;56.964;-2.212;2022-09-03T11:28:15;101261.88;;;30.04;41.15
22481;BME280;11407;56.964;-2.212;2022-09-03T11:33:41;101266.50;;;30.04;41.56
22481;BME280;11407;56.964;-2.212;2022-09-03T11:36:09;101264.16;;;29.89;41.62
22481;BME280;11407;56.964;-2.212;2022-09-03T11:38:36;101264.84;;;30.03;41.46
22481;BME280;11407;56.964;-2.212;2022-09-03T11:41:13;101268.41;;;30.03;41.42
22481;BME280;11407;56.964;-2.212;2022-09-03T11:43:41;101264.47;;;29.99;41.43
22481;BME280;11407;56.964;-2.212;2022-09-03T11:48:43;101275.00;;;29.96;41.19
22481;BME280;11407;56.964;-2.212;2022-09-03T11:51:34;101272.91;;;30.09;40.80
22481;BME280;11407;56.964;-2.212;2022-09-03T11:56:45;101273.00;;;30.21;40.91
22481;BME280;11407;56.964;-2.212;2022-09-03T12:04:17;101272.31;;;29.89;41.92
22481;BME280;11407;56.964;-2.212;2022-09-03T12:20:34;101274.81;;;29.55;42.69
22481;BME280;11407;56.964;-2.212;2022-09-03T12:23:00;101274.66;;;29.50;42.64
22481;BME280;11407;56.964;-2.212;2022-09-03T12:25:27;101275.19;;;29.40;42.65
22481;BME280;11407;56.964;-2.212;2022-09-03T12:27:52;101277.38;;;29.50;42.17
22481;BME280;11407;56.964;-2.212;2022-09-03T12:30:21;101277.66;;;29.42;42.75
22481;BME280;11407;56.964;-2.212;2022-09-03T12:32:47;101280.00;;;29.38;42.82
22481;BME280;11407;56.964;-2.212;2022-09-03T12:35:19;101278.81;;;29.52;42.18
22481;BME280;11407;56.964;-2.212;2022-09-03T12:37:45;101278.28;;;29.44;43.06
22481;BME280;11407;56.964;-2.212;2022-09-03T12:40:22;101278.75;;;29.34;42.89
22481;BME280;11407;56.964;-2.212;2022-09-03T12:42:48;101280.63;;;29.40;42.57
22481;BME280;11407;56.964;-2.212;2022-09-03T12:45:21;101286.44;;;29.37;42.58
22481;BME280;11407;56.964;-2.212;2022-09-03T12:47:47;101278.66;;;29.23;42.80
22481;BME280;11407;56.964;-2.212;2022-09-03T12:50:18;101278.00;;;29.28;42.65
22481;BME280;11407;56.964;-2.212;2022-09-03T12:55:37;101287.06;;;29.22;43.13
22481;BME280;11407;56.964;-2.212;2022-09-03T13:00:39;101279.28;;;29.25;43.11
22481;BME280;11407;56.964;-2.212;2022-09-03T13:03:38;101286.78;;;29.47;42.51
22481;BME280;11407;56.964;-2.212;2022-09-03T13:06:13;101279.03;;;29.69;41.81
22481;BME280;11407;56.964;-2.212;2022-09-03T13:08:52;101273.00;;;29.49;42.29
22481;BME280;11407;56.964;-2.212;2022-09-03T13:11:21;101275.41;;;29.57;42.93
22481;BME280;11407;56.964;-2.212;2022-09-03T13:13:55;101272.94;;;29.55;42.39
22481;BME280;11407;56.964;-2.212;2022-09-03T13:16:48;101270.13;;;29.44;43.03
22481;BME280;11407;56.964;-2.212;2022-09-03T13:19:40;101271.34;;;29.48;42.94
22481;BME280;11407;56.964;-2.212;2022-09-03T13:30:04;101273.06;;;29.60;42.77
22481;BME280;11407;56.964;-2.212;2022-09-03T13:43:02;101276.63;;;29.61;42.61
22481;BME280;11407;56.964;-2.212;2022-09-03T13:48:31;101272.03;;;29.97;41.61
22481;BME280;11407;56.964;-2.212;2022-09-03T13:51:51;101269.59;;;30.07;41.10
22481;BME280;11407;56.964;-2.212;2022-09-03T13:54:30;101277.63;;;30.02;41.83
22481;BME280;11407;56.964;-2.212;2022-09-03T13:57:03;101271.25;;;30.08;41.10
22481;BME280;11407;56.964;-2.212;2022-09-03T13:59:49;101270.88;;;30.05;41.05
22481;BME280;11407;56.964;-2.212;2022-09-03T14:02:31;101273.81;;;30.21;42.05
22481;BME280;11407;56.964;-2.212;2022-09-03T14:05:04;101268.28;;;30.28;41.78
22481;BME280;11407;56.964;-2.212;2022-09-03T14:08:27;101258.00;;;30.41;40.95
22481;BME280;11407;56.964;-2.212;2022-09-03T14:10:49;101261.88;;;30.33;41.26
22481;BME280;11407;56.964;-2.212;2022-09-03T14:16:28;101256.97;;;30.42;41.63
22481;BME280;11407;56.964;-2.212;2022-09-03T14:19:00;101251.84;;;30.63;40.93
22481;BME280;11407;56.964;-2.212;2022-09-03T14:26:32;101260.00;;;30.34;41.51
22481;BME280;11407;56.964;-2.212;2022-09-03T14:29:01;101261.06;;;30.33;41.58
22481;BME280;11407;56.964;-2.212;2022-09-03T14:34:07;101245.19;;;30.30;40.94
22481;BME280;11407;56.964;-2.212;2022-09-03T14:39:33;101250.78;;;30.35;40.67
22481;BME280;11407;56.964;-2.212;2022-09-03T14:50:26;101260.44;;;30.20;40.87
22481;BME280;11407;56.964;-2.212;2022-09-03T14:53:21;101252.38;;;30.13;41.11
22481;BME280;11407;56.964;-2.212;2022-09-03T15:01:27;101246.78;;;29.90;41.61
22481;BME280;11407;56.964;-2.212;2022-09-03T15:07:15;101247.75;;;29.78;41.58
22481;BME280;11407;56.964;-2.212;2022-09-03T15:12:34;101235.41;;;29.46;41.54
22481;BME280;11407;56.964;-2.212;2022-09-03T15:15:11;101240.91;;;29.39;41.38
22481;BME280;11407;56.964;-2.212;2022-09-03T15:20:23;101250.34;;;29.13;42.34
22481;BME280;11407;56.964;-2.212;2022-09-03T15:34:27;101260.56;;;28.62;43.55
22481;BME280;11407;56.964;-2.212;2022-09-03T15:37:01;101258.97;;;28.54;43.44
22481;BME280;11407;56.964;-2.212;2022-09-03T15:39:36;101254.22;;;28.43;43.85
22481;BME280;11407;56.964;-2.212;2022-09-03T15:42:16;101255.06;;;28.44;44.01
22481;BME280;11407;56.964;-2.212;2022-09-03T15:44:48;101249.44;;;28.45;44.14
22481;BME280;11407;56.964;-2.212;2022-09-03T15:53:05;101258.19;;;28.72;43.77
22481;BME280;11407;56.964;-2.212;2022-09-03T15:55:40;101264.50;;;28.66;43.91
22481;BME280;11407;56.964;-2.212;2022-09-03T16:00:55;101267.28;;;28.53;44.16
22481;BME280;11407;56.964;-2.212;2022-09-03T16:03:43;101266.06;;;28.80;43.70
22481;BME280;11407;56.964;-2.212;2022-09-03T16:09:50;101253.84;;;28.95;43.25
22481;BME280;11407;56.964;-2.212;2022-09-03T16:15:04;101260.38;;;28.88;43.67
22481;BME280;11407;56.964;-2.212;2022-09-03T16:17:38;101263.09;;;28.88;43.76
22481;BME280;11407;56.964;-2.212;2022-09-03T16:20:26;101252.13;;;29.01;42.88
22481;BME280;11407;56.964;-2.212;2022-09-03T16:23:03;101255.06;;;28.99;43.16
22481;BME280;11407;56.964;-2.212;2022-09-03T16:25:55;101252.25;;;29.12;43.05
22481;BME280;11407;56.964;-2.212;2022-09-03T16:28:26;101254.75;;;29.32;42.18
22481;BME280;11407;56.964;-2.212;2022-09-03T16:36:48;101258.50;;;28.88;43.23
22481;BME280;11407;56.964;-2.212;2022-09-03T16:39:43;101250.63;;;28.80;42.87
22481;BME280;11407;56.964;-2.212;2022-09-03T16:42:39;101268.00;;;28.73;43.26
22481;BME280;11407;56.964;-2.212;2022-09-03T16:55:59;101253.81;;;28.46;43.68
22481;BME280;11407;56.964;-2.212;2022-09-03T17:28:10;101275.50;;;27.96;44.27
22481;BME280;11407;56.964;-2.212;2022-09-03T17:33:51;101274.72;;;27.89;44.17
22481;BME280;11407;56.964;-2.212;2022-09-03T17:36:26;101280.81;;;27.78;44.67
22481;BME280;11407;56.964;-2.212;2022-09-03T17:52:36;101260.41;;;27.63;44.58
22481;BME280;11407;56.964;-2.212;2022-09-03T17:55:20;101267.72;;;27.56;44.82
22481;BME280;11407;56.964;-2.212;2022-09-03T17:57:52;101269.41;;;27.44;44.67
22481;BME280;11407;56.964;-2.212;2022-09-03T18:00:35;101273.00;;;27.32;45.16
22481;BME280;11407;56.964;-2.212;2022-09-03T18:03:20;101277.38;;;27.26;45.64
22481;BME280;11407;56.964;-2.212;2022-09-03T18:06:08;101287.34;;;27.39;45.06
22481;BME280;11407;56.964;-2.212;2022-09-03T18:08:45;101282.16;;;27.18;45.45
22481;BME280;11407;56.964;-2.212;2022-09-03T18:11:21;101281.75;;;27.14;45.52
22481;BME280;11407;56.964;-2.212;2022-09-03T18:14:14;101279.22;;;27.26;45.22
22481;BME280;11407;56.964;-2.212;2022-09-03T18:16:48;101282.56;;;27.15;45.03
22481;BME280;11407;56.964;-2.212;2022-09-03T18:19:33;101285.50;;;27.13;45.75